Pinedale, California
Current Conditions -  °F | °C
As of 4:53 PM on Sunday 21 Dec 2014 (Local Time) from KFAT Reporting Station
Overcast Overcast  
Wind Chill: 59°   Ceiling: 1600
Heat Index: 59°   Visibility: 10mi
Dew Point: 53°   Wind: 3mph
Humidity: 81%   Direction: 80°E
Pressure: 30.23"   Gusts: NA
Location:  36.8419°N, 119.795°W
Report Text: KFAT 220053Z 08003KT 10SM BKN016 OVC020 15/12 A3023 RMK AO2 SLP235 TOVC035 T01500117
Loading
Personal Weather Stations






























Interactive Weather Map New forecast layout! Learn more

10-Day Weather Forecast

Advertisements
Track Severe Weather on mobile